createdAt,value
2023-03-11T00:02:05.995Z,1.28
2023-03-11T00:04:37.134Z,1.20
2023-03-11T00:07:09.512Z,1.10
2023-03-11T00:09:40.263Z,0.97
2023-03-11T00:12:10.720Z,0.86
2023-03-11T00:14:41.228Z,0.78
2023-03-11T00:17:13.260Z,0.71
2023-03-11T00:19:43.973Z,0.66
2023-03-11T00:22:14.908Z,0.66
2023-03-11T00:24:50.016Z,0.63
2023-03-11T00:27:17.519Z,0.52
2023-03-11T00:29:48.038Z,0.46
2023-03-11T00:32:18.521Z,0.49
2023-03-11T00:34:50.934Z,0.42
2023-03-11T00:37:21.685Z,0.44
2023-03-11T00:39:52.312Z,0.40
2023-03-11T00:42:23.683Z,0.36
2023-03-11T00:44:55.212Z,0.34
2023-03-11T00:47:26.177Z,0.36
2023-03-11T00:49:56.574Z,0.29
2023-03-11T00:52:28.865Z,0.34
2023-03-11T00:55:00.783Z,0.31
2023-03-11T00:57:31.216Z,0.30
2023-03-11T01:00:01.906Z,0.31
2023-03-11T01:02:32.309Z,0.30
2023-03-11T01:05:02.790Z,0.28
2023-03-11T01:07:34.069Z,0.30
2023-03-11T01:10:07.718Z,0.29
2023-03-11T01:12:38.285Z,0.26
2023-03-11T01:15:10.543Z,0.31
2023-03-11T01:17:41.273Z,0.32
2023-03-11T01:20:13.028Z,0.28
2023-03-11T01:22:44.011Z,0.28
2023-03-11T01:25:17.692Z,0.27
2023-03-11T01:27:49.943Z,0.26
2023-03-11T01:30:23.620Z,0.30
2023-03-11T01:32:56.340Z,0.34
2023-03-11T01:35:29.212Z,0.28
2023-03-11T01:38:00.307Z,0.30
2023-03-11T01:40:43.894Z,0.30
2023-03-11T01:43:40.691Z,0.34
2023-03-11T01:46:25.701Z,0.32
2023-03-11T01:49:04.292Z,0.33
2023-03-11T01:51:37.785Z,0.32
2023-03-11T01:54:23.372Z,0.36
2023-03-11T01:56:55.122Z,0.39
2023-03-11T01:59:28.395Z,0.37
2023-03-11T02:02:20.321Z,0.38
2023-03-11T02:04:52.493Z,0.40
2023-03-11T02:07:23.246Z,0.41
2023-03-11T02:09:53.836Z,0.46
2023-03-11T02:12:26.065Z,0.44
2023-03-11T02:14:56.788Z,0.46
2023-03-11T02:17:27.816Z,0.44
2023-03-11T02:20:13.834Z,0.43
2023-03-11T02:22:44.874Z,0.42
2023-03-11T02:25:37.034Z,0.46
2023-03-11T02:28:10.630Z,0.45
2023-03-11T02:30:46.266Z,0.44
2023-03-11T02:33:17.490Z,0.50
2023-03-11T02:35:48.049Z,0.48
2023-03-11T02:38:18.558Z,0.48
2023-03-11T02:40:58.069Z,0.46
2023-03-11T02:43:42.368Z,0.50
2023-03-11T02:46:15.095Z,0.50
2023-03-11T02:48:46.359Z,0.48
2023-03-11T02:51:16.827Z,0.48
2023-03-11T02:53:51.438Z,0.46
2023-03-11T02:56:23.990Z,0.44
2023-03-11T02:58:54.881Z,0.42
2023-03-11T03:01:25.356Z,0.39
2023-03-11T03:03:56.314Z,0.42
2023-03-11T03:06:28.648Z,0.45
2023-03-11T03:08:59.400Z,0.46
2023-03-11T03:11:30.255Z,0.44
2023-03-11T03:14:00.862Z,0.40
2023-03-11T03:16:31.395Z,0.42
2023-03-11T03:19:02.004Z,0.39
2023-03-11T03:21:32.546Z,0.38
2023-03-11T03:24:03.793Z,0.37
2023-03-11T03:26:34.298Z,0.32
2023-03-11T03:29:06.238Z,0.32
2023-03-11T03:31:36.985Z,0.32
2023-03-11T03:34:07.581Z,0.34
2023-03-11T03:36:38.131Z,0.33
2023-03-11T03:39:10.188Z,0.36
2023-03-11T03:41:41.206Z,0.34
2023-03-11T03:44:13.285Z,0.34
2023-03-11T03:46:43.786Z,0.36
2023-03-11T03:49:14.408Z,0.41
2023-03-11T03:51:44.841Z,0.40
2023-03-11T03:54:16.387Z,0.39
2023-03-11T03:56:46.820Z,0.36
2023-03-11T03:59:17.284Z,0.37
2023-03-11T04:01:47.868Z,0.36
2023-03-11T04:04:18.308Z,0.32
2023-03-11T04:06:48.716Z,0.36
2023-03-11T04:09:20.004Z,0.34
2023-03-11T04:11:50.580Z,0.36
2023-03-11T04:14:22.867Z,0.37
2023-03-11T04:16:53.529Z,0.36
2023-03-11T04:19:25.253Z,0.35
2023-03-11T04:21:56.714Z,0.37
2023-03-11T04:24:27.684Z,0.38
2023-03-11T04:26:58.743Z,0.36
2023-03-11T04:29:29.587Z,0.35
2023-03-11T04:32:00.369Z,0.34
2023-03-11T04:34:31.036Z,0.35
2023-03-11T04:37:01.813Z,0.42
2023-03-11T04:39:32.390Z,0.42
2023-03-11T04:42:04.144Z,0.36
2023-03-11T04:44:36.686Z,0.44
2023-03-11T04:47:07.406Z,0.42
2023-03-11T04:49:37.958Z,0.42
2023-03-11T04:52:11.094Z,0.43
2023-03-11T04:54:41.020Z,0.45
2023-03-11T04:57:11.601Z,0.45
2023-03-11T04:59:42.293Z,0.42
2023-03-11T05:02:13.058Z,0.44
2023-03-11T05:04:43.661Z,0.42
2023-03-11T05:07:14.362Z,0.42
2023-03-11T05:09:44.841Z,0.48
2023-03-11T05:12:15.315Z,0.46
2023-03-11T05:14:45.866Z,0.46
2023-03-11T05:17:18.190Z,0.47
2023-03-11T05:19:48.972Z,0.52
2023-03-11T05:22:19.534Z,0.49
2023-03-11T05:24:50.218Z,0.52
2023-03-11T05:27:21.403Z,0.54
2023-03-11T05:29:52.092Z,0.53
2023-03-11T05:32:23.761Z,0.52
2023-03-11T05:34:54.691Z,0.48
2023-03-11T05:37:25.230Z,0.50
2023-03-11T05:39:56.185Z,0.54
2023-03-11T05:42:26.923Z,0.51
2023-03-11T05:44:57.331Z,0.56
2023-03-11T05:47:27.846Z,0.58
2023-03-11T05:49:58.527Z,0.63
2023-03-11T05:52:30.668Z,0.64
2023-03-11T05:55:01.505Z,0.56
2023-03-11T05:57:32.108Z,0.53
2023-03-11T06:00:03.681Z,0.52
2023-03-11T06:02:34.230Z,0.57
2023-03-11T06:05:08.069Z,0.58
2023-03-11T06:07:37.474Z,0.62
2023-03-11T06:10:09.042Z,0.58
2023-03-11T06:12:39.824Z,0.58
2023-03-11T06:15:13.089Z,0.60
2023-03-11T06:17:43.643Z,0.60
2023-03-11T06:20:14.589Z,0.59
2023-03-11T06:22:45.070Z,0.52
2023-03-11T06:25:15.662Z,0.56
2023-03-11T06:27:54.029Z,0.55
2023-03-11T06:30:25.686Z,0.58
2023-03-11T06:32:56.351Z,0.54
2023-03-11T06:35:27.046Z,0.63
2023-03-11T06:37:57.506Z,0.66
2023-03-11T06:40:28.178Z,0.62
2023-03-11T06:42:58.787Z,0.56
2023-03-11T06:45:29.843Z,0.58
2023-03-11T06:48:00.487Z,0.60
2023-03-11T06:50:30.959Z,0.65
2023-03-11T06:53:04.333Z,0.66
2023-03-11T06:55:36.133Z,0.75
2023-03-11T06:58:07.737Z,0.68
2023-03-11T07:00:40.163Z,0.70
2023-03-11T07:03:12.685Z,0.66
2023-03-11T07:05:43.730Z,0.67
2023-03-11T07:08:14.331Z,0.70
2023-03-11T07:10:44.931Z,0.72
2023-03-11T07:13:15.743Z,0.67
2023-03-11T07:15:46.407Z,0.67
2023-03-11T07:18:17.984Z,0.72
2023-03-11T07:20:48.573Z,0.74
2023-03-11T07:23:19.020Z,0.69
2023-03-11T07:25:51.737Z,0.72
2023-03-11T07:28:25.373Z,0.84
2023-03-11T07:30:58.896Z,0.88
2023-03-11T07:33:29.700Z,0.82
2023-03-11T07:36:01.550Z,0.92
2023-03-11T07:38:33.479Z,0.82
2023-03-11T07:41:04.293Z,0.84
2023-03-11T07:43:35.438Z,0.82
2023-03-11T07:46:18.204Z,0.87
2023-03-11T07:48:51.442Z,1.04
2023-03-11T07:51:27.300Z,1.12
2023-03-11T07:53:59.122Z,1.06
2023-03-11T07:56:32.708Z,1.15
2023-03-11T07:59:05.851Z,1.16
2023-03-11T08:01:36.673Z,1.17
2023-03-11T08:04:14.467Z,1.44
2023-03-11T08:06:47.198Z,1.34
2023-03-11T08:09:19.071Z,1.22
2023-03-11T08:11:50.300Z,1.34
2023-03-11T08:14:21.362Z,1.44
2023-03-11T08:16:53.454Z,1.36
2023-03-11T08:19:23.892Z,1.46
2023-03-11T08:21:55.670Z,1.38
2023-03-11T08:24:26.167Z,1.61
2023-03-11T08:26:57.265Z,1.52
2023-03-11T08:29:27.869Z,1.50
2023-03-11T08:32:00.007Z,1.55
2023-03-11T08:34:30.701Z,1.94
2023-03-11T08:37:01.536Z,1.67
2023-03-11T08:39:32.169Z,1.51
2023-03-11T08:42:03.389Z,1.48
2023-03-11T08:44:34.191Z,1.60
2023-03-11T08:47:04.788Z,1.87
2023-03-11T08:49:37.198Z,1.64
2023-03-11T08:52:08.056Z,1.38
2023-03-11T08:54:38.539Z,1.35
2023-03-11T08:57:09.071Z,1.66
2023-03-11T08:59:39.761Z,1.72
2023-03-11T09:02:12.762Z,1.74
2023-03-11T09:04:43.322Z,2.00
2023-03-11T09:07:15.121Z,2.11
2023-03-11T09:09:45.686Z,2.28
2023-03-11T09:12:17.967Z,2.26
2023-03-11T09:14:48.532Z,2.50
2023-03-11T09:17:18.921Z,2.66
2023-03-11T09:19:49.920Z,2.54
2023-03-11T09:22:20.347Z,2.48
2023-03-11T09:24:51.102Z,2.46
2023-03-11T09:27:21.706Z,2.28
2023-03-11T09:29:52.977Z,2.42
2023-03-11T09:32:23.592Z,2.29
2023-03-11T09:34:55.156Z,2.16
2023-03-11T09:37:27.098Z,2.24
2023-03-11T09:39:57.755Z,2.09
2023-03-11T09:42:36.519Z,1.88
2023-03-11T09:45:19.371Z,1.97
2023-03-11T09:48:01.887Z,1.97
2023-03-11T09:50:53.626Z,1.87
2023-03-11T09:53:30.254Z,1.90
2023-03-11T09:56:02.401Z,2.04
2023-03-11T09:58:51.405Z,1.84
2023-03-11T10:01:40.024Z,2.03
2023-03-11T10:04:22.398Z,2.22
2023-03-11T10:06:53.410Z,2.18
2023-03-11T10:09:45.136Z,1.96
2023-03-11T10:12:41.268Z,2.14
2023-03-11T10:15:28.179Z,2.31
2023-03-11T10:18:04.580Z,2.20
2023-03-11T10:20:46.857Z,2.46
2023-03-11T10:23:37.428Z,2.46
2023-03-11T10:26:13.711Z,2.62
2023-03-11T10:28:50.047Z,3.06
2023-03-11T10:31:29.724Z,3.06
2023-03-11T10:34:09.282Z,2.76
2023-03-11T10:37:01.900Z,3.10
2023-03-11T10:39:34.031Z,3.22
2023-03-11T10:42:07.022Z,3.32
2023-03-11T10:44:39.926Z,3.21
2023-03-11T10:47:25.918Z,3.26
2023-03-11T10:49:56.733Z,2.95
2023-03-11T10:52:27.856Z,2.83
2023-03-11T10:55:03.944Z,2.77
2023-03-11T10:57:37.113Z,3.65
2023-03-11T11:00:14.855Z,3.42
2023-03-11T11:02:59.938Z,4.12
2023-03-11T11:05:33.386Z,4.23
2023-03-11T11:08:07.105Z,3.65
2023-03-11T11:10:39.322Z,2.92
2023-03-11T11:13:16.993Z,2.86
2023-03-11T11:16:02.501Z,2.82
2023-03-11T11:18:39.318Z,2.63
2023-03-11T11:21:29.407Z,2.70
2023-03-11T11:24:15.572Z,2.54
2023-03-11T11:27:06.941Z,2.56
2023-03-11T11:29:39.628Z,2.55
2023-03-11T11:32:27.381Z,3.04
2023-03-11T11:35:08.229Z,3.32
2023-03-11T11:37:42.410Z,2.64
2023-03-11T11:40:19.658Z,2.79
2023-03-11T11:43:02.381Z,2.92
2023-03-11T11:45:38.343Z,2.82
2023-03-11T11:48:12.166Z,2.84
2023-03-11T11:50:48.675Z,3.24
2023-03-11T11:53:25.038Z,3.11
2023-03-11T11:55:56.207Z,3.62
2023-03-11T11:58:26.624Z,3.95
2023-03-11T12:01:11.471Z,3.92
2023-03-11T12:04:06.720Z,3.73
2023-03-11T12:06:43.097Z,4.21
2023-03-11T12:09:21.223Z,3.64
2023-03-11T12:12:03.375Z,3.42
2023-03-11T12:14:48.654Z,3.67
2023-03-11T12:17:21.676Z,3.28
2023-03-11T12:20:13.459Z,3.30
2023-03-11T12:23:01.270Z,3.14
2023-03-11T12:25:57.564Z,3.26
2023-03-11T12:28:48.116Z,2.96
2023-03-11T12:31:19.190Z,2.81
2023-03-11T12:33:52.679Z,3.36
2023-03-11T12:36:38.099Z,4.02
2023-03-11T12:39:29.871Z,4.24
2023-03-11T12:42:16.086Z,4.08
2023-03-11T12:44:49.110Z,3.65
2023-03-11T12:47:28.935Z,4.03
2023-03-11T12:50:37.000Z,3.56
2023-03-11T12:53:09.419Z,3.06
2023-03-11T12:55:40.792Z,3.35
2023-03-11T12:58:17.232Z,3.63
2023-03-11T13:00:52.372Z,4.07
2023-03-11T13:03:33.181Z,4.49
2023-03-11T13:06:29.177Z,4.00
2023-03-11T13:09:02.493Z,3.70
2023-03-11T13:11:38.686Z,3.75
2023-03-11T13:14:24.394Z,4.04
2023-03-11T13:16:55.721Z,3.73
2023-03-11T13:19:29.618Z,3.68
2023-03-11T13:22:02.437Z,3.56
2023-03-11T13:24:35.998Z,3.72
2023-03-11T13:27:12.791Z,4.19
2023-03-11T13:30:01.372Z,3.67
2023-03-11T13:32:37.534Z,3.76
2023-03-11T13:35:15.379Z,4.31
2023-03-11T13:38:00.716Z,4.26
2023-03-11T13:40:34.361Z,4.17
2023-03-11T13:43:21.831Z,3.96
2023-03-11T13:46:30.409Z,3.53
2023-03-11T13:49:10.658Z,3.76
2023-03-11T13:51:50.339Z,3.70
2023-03-11T13:54:38.844Z,3.44
2023-03-11T13:57:14.728Z,3.70
2023-03-11T13:59:49.778Z,3.70
2023-03-11T14:02:23.574Z,3.36
2023-03-11T14:05:05.417Z,3.03
2023-03-11T14:07:38.571Z,3.10
2023-03-11T14:10:27.427Z,3.10
2023-03-11T14:13:10.207Z,3.18
2023-03-11T14:15:51.143Z,2.96
2023-03-11T14:18:33.323Z,2.92
2023-03-11T14:21:06.316Z,2.91
2023-03-11T14:23:39.956Z,2.72
2023-03-11T14:26:17.354Z,2.85
2023-03-11T14:28:50.983Z,2.78
2023-03-11T14:31:38.434Z,3.02
2023-03-11T14:34:17.780Z,2.67
2023-03-11T14:36:58.921Z,2.68
2023-03-11T14:39:43.833Z,2.51
2023-03-11T14:42:29.685Z,2.64
2023-03-11T14:45:19.229Z,2.82
2023-03-11T14:47:55.405Z,3.08
2023-03-11T14:50:28.738Z,3.20
2023-03-11T14:53:26.571Z,3.18
2023-03-11T14:56:17.810Z,2.87
2023-03-11T14:59:07.840Z,2.74
2023-03-11T15:01:43.735Z,2.43
2023-03-11T15:04:17.770Z,2.28
2023-03-11T15:06:50.176Z,2.27
2023-03-11T15:09:23.470Z,2.30
2023-03-11T15:12:01.422Z,2.25
2023-03-11T15:14:38.120Z,2.42
2023-03-11T15:17:35.309Z,2.38
2023-03-11T15:19:54.543Z,2.60
2023-03-11T15:22:34.190Z,2.67
2023-03-11T15:25:06.643Z,2.64
2023-03-11T15:27:39.547Z,2.60
2023-03-11T15:30:25.086Z,2.68
2023-03-11T15:32:56.909Z,2.81
2023-03-11T15:35:30.992Z,3.03
2023-03-11T15:38:23.694Z,2.88
2023-03-11T15:40:57.381Z,2.79
2023-03-11T15:43:30.954Z,2.67
2023-03-11T15:46:03.899Z,2.70
2023-03-11T15:48:35.479Z,2.69
2023-03-11T15:51:06.246Z,2.68
2023-03-11T15:53:37.785Z,2.76
2023-03-11T15:56:11.439Z,2.76
2023-03-11T15:58:42.030Z,2.72
2023-03-11T16:01:13.926Z,2.66
2023-03-11T16:03:44.657Z,2.60
2023-03-11T16:06:16.758Z,2.60
2023-03-11T16:08:50.832Z,2.48
2023-03-11T16:11:21.429Z,2.42
2023-03-11T16:13:52.042Z,2.42
2023-03-11T16:16:23.875Z,2.39
2023-03-11T16:18:54.630Z,2.42
2023-03-11T16:21:29.056Z,2.30
2023-03-11T16:24:00.524Z,2.34
2023-03-11T16:26:31.147Z,2.42
2023-03-11T16:29:16.617Z,2.24
2023-03-11T16:31:38.528Z,2.27
2023-03-11T16:34:10.124Z,2.32
2023-03-11T16:36:43.258Z,2.26
2023-03-11T16:39:14.669Z,2.13
2023-03-11T16:41:47.832Z,2.27
2023-03-11T16:44:19.092Z,2.06
2023-03-11T16:46:52.900Z,2.07
2023-03-11T16:49:25.068Z,2.02
2023-03-11T16:51:55.986Z,2.02
2023-03-11T16:54:26.641Z,1.92
2023-03-11T16:56:59.057Z,2.00
2023-03-11T16:59:31.056Z,1.95
2023-03-11T17:02:03.117Z,1.91
2023-03-11T17:04:34.033Z,1.84
2023-03-11T17:07:05.015Z,1.90
2023-03-11T17:09:36.403Z,1.76
2023-03-11T17:12:07.448Z,1.86
2023-03-11T17:14:37.927Z,1.70
2023-03-11T17:17:12.826Z,1.70
2023-03-11T17:19:44.469Z,1.66
2023-03-11T17:22:17.193Z,1.65
2023-03-11T17:24:50.645Z,1.64
2023-03-11T17:27:21.134Z,1.66
2023-03-11T17:29:54.036Z,1.74
2023-03-11T17:32:25.834Z,1.80
2023-03-11T17:34:56.838Z,1.75
2023-03-11T17:37:29.233Z,1.58
2023-03-11T17:40:01.396Z,1.76
2023-03-11T17:42:33.465Z,1.68
2023-03-11T17:45:03.967Z,1.68
2023-03-11T17:47:36.247Z,1.78
2023-03-11T17:50:07.363Z,1.69
2023-03-11T17:52:40.369Z,1.65
2023-03-11T17:55:13.855Z,1.57
2023-03-11T17:57:45.807Z,1.73
2023-03-11T18:00:17.030Z,1.50
2023-03-11T18:02:50.625Z,1.57
2023-03-11T18:05:22.364Z,1.50
2023-03-11T18:07:52.814Z,1.58
2023-03-11T18:10:23.509Z,1.62
2023-03-11T18:12:53.951Z,1.72
2023-03-11T18:15:24.964Z,1.68
2023-03-11T18:17:57.329Z,1.44
2023-03-11T18:20:28.352Z,1.52
2023-03-11T18:23:00.348Z,1.36
2023-03-11T18:25:32.396Z,1.60
2023-03-11T18:28:03.891Z,1.48
2023-03-11T18:30:38.859Z,1.56
2023-03-11T18:33:10.662Z,1.52
2023-03-11T18:35:41.163Z,1.67
2023-03-11T18:38:12.394Z,1.48
2023-03-11T18:40:44.753Z,1.45
2023-03-11T18:43:16.458Z,1.52
2023-03-11T18:45:48.579Z,1.62
2023-03-11T18:48:19.181Z,1.42
2023-03-11T18:50:54.238Z,1.48
2023-03-11T18:53:27.804Z,1.46
2023-03-11T18:56:03.831Z,1.41
2023-03-11T18:58:36.269Z,1.32
2023-03-11T19:01:13.992Z,1.55
2023-03-11T19:03:46.754Z,1.37
2023-03-11T19:06:19.022Z,1.31
2023-03-11T19:08:51.945Z,1.38
2023-03-11T19:11:24.312Z,1.32
2023-03-11T19:13:59.622Z,1.24
2023-03-11T19:16:31.073Z,1.30
2023-03-11T19:19:04.194Z,1.30
2023-03-11T19:21:34.656Z,1.27
2023-03-11T19:24:10.209Z,1.29
2023-03-11T19:26:45.454Z,1.36
2023-03-11T19:29:14.242Z,1.38
2023-03-11T19:31:46.176Z,1.27
2023-03-11T19:34:18.194Z,1.32
2023-03-11T19:36:49.875Z,1.40
2023-03-11T19:39:20.933Z,1.32
2023-03-11T19:41:51.697Z,1.30
2023-03-11T19:44:23.687Z,1.30
2023-03-11T19:46:59.840Z,1.16
2023-03-11T19:49:27.498Z,1.22
2023-03-11T19:51:59.445Z,1.23
2023-03-11T19:54:30.161Z,1.22
2023-03-11T19:57:01.796Z,1.00
2023-03-11T19:59:32.241Z,1.13
2023-03-11T20:02:05.796Z,1.11
2023-03-11T20:04:36.365Z,1.20
2023-03-11T20:07:07.382Z,1.20
2023-03-11T20:09:39.865Z,1.11
2023-03-11T20:12:10.659Z,1.14
2023-03-11T20:14:42.746Z,1.09
2023-03-11T20:17:15.809Z,1.18
2023-03-11T20:19:49.178Z,1.21
2023-03-11T20:22:21.094Z,1.12
2023-03-11T20:24:51.785Z,1.05
2023-03-11T20:27:22.754Z,1.12
2023-03-11T20:29:56.622Z,1.10
2023-03-11T20:32:28.741Z,1.12
2023-03-11T20:34:59.608Z,1.11
2023-03-11T20:37:34.101Z,1.12
2023-03-11T20:40:06.874Z,1.12
2023-03-11T20:42:38.299Z,1.10
2023-03-11T20:45:11.305Z,1.16
2023-03-11T20:47:43.452Z,1.08
2023-03-11T20:50:14.213Z,1.06
2023-03-11T20:52:47.836Z,1.00
2023-03-11T20:55:19.508Z,1.08
2023-03-11T20:57:50.709Z,1.13
2023-03-11T21:00:25.849Z,0.92
2023-03-11T21:02:56.595Z,1.02
2023-03-11T21:05:29.389Z,0.94
2023-03-11T21:08:00.889Z,1.04
2023-03-11T21:10:32.248Z,1.10
2023-03-11T21:13:02.805Z,1.10
2023-03-11T21:15:33.510Z,1.12
2023-03-11T21:18:06.268Z,1.09
2023-03-11T21:20:37.983Z,1.00
2023-03-11T21:23:09.846Z,1.14
2023-03-11T21:25:42.757Z,0.97
2023-03-11T21:28:14.112Z,0.96
2023-03-11T21:30:47.520Z,1.09
2023-03-11T21:33:20.851Z,1.16
2023-03-11T21:35:54.070Z,1.08
2023-03-11T21:38:28.525Z,0.97
2023-03-11T21:41:11.370Z,0.96
2023-03-11T21:43:43.129Z,1.02
2023-03-11T21:46:19.549Z,1.10
2023-03-11T21:48:51.565Z,1.12
2023-03-11T21:51:22.715Z,1.00
2023-03-11T21:53:56.747Z,1.00
2023-03-11T21:56:28.734Z,1.00
2023-03-11T21:59:03.203Z,1.10
2023-03-11T22:01:34.902Z,1.14
2023-03-11T22:04:06.835Z,1.18
2023-03-11T22:06:37.427Z,1.21
2023-03-11T22:09:08.533Z,1.12
2023-03-11T22:11:40.258Z,1.26
2023-03-11T22:14:12.470Z,2.12
2023-03-11T22:16:43.100Z,2.68
2023-03-11T22:19:14.109Z,3.59
2023-03-11T22:21:46.236Z,2.96
2023-03-11T22:24:17.599Z,2.22
2023-03-11T22:26:48.713Z,1.84
2023-03-11T22:29:20.893Z,1.66
2023-03-11T22:31:53.397Z,1.40
2023-03-11T22:34:25.329Z,1.29
2023-03-11T22:36:56.306Z,1.18
2023-03-11T22:39:27.503Z,1.05
2023-03-11T22:41:57.991Z,1.22
2023-03-11T22:44:29.125Z,1.10
2023-03-11T22:47:02.775Z,0.96
2023-03-11T22:49:35.408Z,1.10
2023-03-11T22:52:11.003Z,0.97
2023-03-11T22:54:40.817Z,0.87
2023-03-11T22:57:12.032Z,1.00
2023-03-11T22:59:44.187Z,1.01
2023-03-11T23:02:17.890Z,1.04
2023-03-11T23:04:49.217Z,0.92
2023-03-11T23:07:19.730Z,0.96
2023-03-11T23:09:51.267Z,0.94
2023-03-11T23:12:21.792Z,0.99
2023-03-11T23:14:55.225Z,0.88
2023-03-11T23:17:25.716Z,0.98
2023-03-11T23:20:01.198Z,0.86
2023-03-11T23:22:36.505Z,0.90
2023-03-11T23:25:10.131Z,0.94
2023-03-11T23:27:42.430Z,0.96
2023-03-11T23:30:15.263Z,0.72
2023-03-11T23:32:48.079Z,0.82
2023-03-11T23:35:18.680Z,0.96
2023-03-11T23:37:50.874Z,0.90
2023-03-11T23:40:25.188Z,0.86
2023-03-11T23:42:56.120Z,0.89
2023-03-11T23:45:26.536Z,0.71
2023-03-11T23:47:57.313Z,0.74
2023-03-11T23:50:27.730Z,0.68
2023-03-11T23:52:58.351Z,0.82
2023-03-11T23:55:28.882Z,0.68
2023-03-11T23:57:59.661Z,0.78
